sensor_id;sensor_type;location;lat;lon;timestamp;P1;durP1;ratioP1;P2;durP2;ratioP2
29838;SDS011;18669;53.356;-1.464;2023-07-22T00:00:43;1.95;;;1.70;;
29838;SDS011;18669;53.356;-1.464;2023-07-22T00:03:27;2.97;;;1.67;;
29838;SDS011;18669;53.356;-1.464;2023-07-22T00:06:13;2.10;;;1.90;;
29838;SDS011;18669;53.356;-1.464;2023-07-22T00:08:58;2.08;;;1.70;;
29838;SDS011;18669;53.356;-1.464;2023-07-22T00:11:43;2.60;;;1.90;;
29838;SDS011;18669;53.356;-1.464;2023-07-22T00:14:28;3.65;;;2.35;;
29838;SDS011;18669;53.356;-1.464;2023-07-22T00:17:13;5.05;;;2.97;;
29838;SDS011;18669;53.356;-1.464;2023-07-22T00:19:58;2.72;;;1.88;;
29838;SDS011;18669;53.356;-1.464;2023-07-22T00:22:44;2.33;;;1.98;;
29838;SDS011;18669;53.356;-1.464;2023-07-22T00:25:29;2.47;;;1.90;;
29838;SDS011;18669;53.356;-1.464;2023-07-22T00:28:14;2.40;;;1.90;;
29838;SDS011;18669;53.356;-1.464;2023-07-22T00:30:59;2.33;;;2.10;;
29838;SDS011;18669;53.356;-1.464;2023-07-22T00:33:47;2.63;;;1.83;;
29838;SDS011;18669;53.356;-1.464;2023-07-22T00:36:32;2.90;;;2.08;;
29838;SDS011;18669;53.356;-1.464;2023-07-22T00:39:17;2.38;;;2.08;;
29838;SDS011;18669;53.356;-1.464;2023-07-22T00:42:02;3.15;;;2.17;;
29838;SDS011;18669;53.356;-1.464;2023-07-22T00:44:47;3.30;;;2.20;;
29838;SDS011;18669;53.356;-1.464;2023-07-22T00:47:32;2.17;;;1.88;;
29838;SDS011;18669;53.356;-1.464;2023-07-22T00:53:03;2.53;;;2.05;;
29838;SDS011;18669;53.356;-1.464;2023-07-22T00:55:48;2.75;;;2.15;;
29838;SDS011;18669;53.356;-1.464;2023-07-22T00:58:34;3.78;;;2.13;;
29838;SDS011;18669;53.356;-1.464;2023-07-22T01:01:19;4.60;;;1.95;;
29838;SDS011;18669;53.356;-1.464;2023-07-22T01:04:03;2.90;;;1.73;;
29838;SDS011;18669;53.356;-1.464;2023-07-22T01:06:49;5.45;;;2.17;;
29838;SDS011;18669;53.356;-1.464;2023-07-22T01:09:37;3.88;;;2.30;;
29838;SDS011;18669;53.356;-1.464;2023-07-22T01:12:22;4.47;;;1.98;;
29838;SDS011;18669;53.356;-1.464;2023-07-22T01:15:07;4.47;;;1.80;;
29838;SDS011;18669;53.356;-1.464;2023-07-22T01:17:52;1.92;;;1.75;;
29838;SDS011;18669;53.356;-1.464;2023-07-22T01:20:37;3.13;;;2.10;;
29838;SDS011;18669;53.356;-1.464;2023-07-22T01:23:22;3.28;;;2.10;;
29838;SDS011;18669;53.356;-1.464;2023-07-22T01:26:07;8.75;;;2.28;;
29838;SDS011;18669;53.356;-1.464;2023-07-22T01:29:01;4.65;;;2.20;;
29838;SDS011;18669;53.356;-1.464;2023-07-22T01:31:50;2.67;;;1.80;;
29838;SDS011;18669;53.356;-1.464;2023-07-22T01:34:36;9.80;;;2.05;;
29838;SDS011;18669;53.356;-1.464;2023-07-22T01:37:21;5.05;;;2.00;;
29838;SDS011;18669;53.356;-1.464;2023-07-22T01:40:06;3.47;;;2.00;;
29838;SDS011;18669;53.356;-1.464;2023-07-22T01:42:57;4.25;;;2.30;;
29838;SDS011;18669;53.356;-1.464;2023-07-22T01:45:42;3.85;;;2.28;;
29838;SDS011;18669;53.356;-1.464;2023-07-22T01:48:27;3.00;;;2.10;;
29838;SDS011;18669;53.356;-1.464;2023-07-22T01:51:12;9.38;;;2.45;;
29838;SDS011;18669;53.356;-1.464;2023-07-22T01:53:57;3.92;;;2.83;;
29838;SDS011;18669;53.356;-1.464;2023-07-22T01:56:42;3.10;;;2.10;;
29838;SDS011;18669;53.356;-1.464;2023-07-22T01:59:27;2.40;;;1.85;;
29838;SDS011;18669;53.356;-1.464;2023-07-22T02:02:12;2.58;;;2.33;;
29838;SDS011;18669;53.356;-1.464;2023-07-22T02:04:57;2.53;;;1.85;;
29838;SDS011;18669;53.356;-1.464;2023-07-22T02:07:42;2.97;;;1.80;;
29838;SDS011;18669;53.356;-1.464;2023-07-22T02:10:26;3.22;;;1.95;;
29838;SDS011;18669;53.356;-1.464;2023-07-22T02:13:11;4.28;;;2.78;;
29838;SDS011;18669;53.356;-1.464;2023-07-22T02:15:56;5.32;;;2.30;;
29838;SDS011;18669;53.356;-1.464;2023-07-22T02:18:41;4.65;;;2.22;;
29838;SDS011;18669;53.356;-1.464;2023-07-22T02:21:26;3.22;;;2.00;;
29838;SDS011;18669;53.356;-1.464;2023-07-22T02:24:12;3.93;;;2.03;;
29838;SDS011;18669;53.356;-1.464;2023-07-22T02:26:57;2.53;;;1.70;;
29838;SDS011;18669;53.356;-1.464;2023-07-22T02:29:42;3.08;;;2.20;;
29838;SDS011;18669;53.356;-1.464;2023-07-22T02:32:27;4.28;;;2.20;;
29838;SDS011;18669;53.356;-1.464;2023-07-22T02:35:12;2.55;;;2.03;;
29838;SDS011;18669;53.356;-1.464;2023-07-22T02:37:57;11.05;;;2.90;;
29838;SDS011;18669;53.356;-1.464;2023-07-22T02:40:42;3.50;;;1.98;;
29838;SDS011;18669;53.356;-1.464;2023-07-22T02:43:27;2.85;;;2.00;;
29838;SDS011;18669;53.356;-1.464;2023-07-22T02:46:12;2.85;;;1.98;;
29838;SDS011;18669;53.356;-1.464;2023-07-22T02:48:57;3.67;;;2.20;;
29838;SDS011;18669;53.356;-1.464;2023-07-22T02:51:43;4.60;;;1.67;;
29838;SDS011;18669;53.356;-1.464;2023-07-22T02:54:28;5.07;;;2.20;;
29838;SDS011;18669;53.356;-1.464;2023-07-22T02:57:13;2.88;;;2.05;;
29838;SDS011;18669;53.356;-1.464;2023-07-22T02:59:58;3.65;;;2.08;;
29838;SDS011;18669;53.356;-1.464;2023-07-22T03:02:43;4.20;;;2.20;;
29838;SDS011;18669;53.356;-1.464;2023-07-22T03:05:28;5.32;;;2.05;;
29838;SDS011;18669;53.356;-1.464;2023-07-22T03:08:14;2.85;;;2.00;;
29838;SDS011;18669;53.356;-1.464;2023-07-22T03:10:59;3.80;;;1.85;;
29838;SDS011;18669;53.356;-1.464;2023-07-22T03:13:44;2.67;;;1.92;;
29838;SDS011;18669;53.356;-1.464;2023-07-22T03:16:28;2.25;;;1.95;;
29838;SDS011;18669;53.356;-1.464;2023-07-22T03:19:13;2.17;;;1.80;;
29838;SDS011;18669;53.356;-1.464;2023-07-22T03:21:58;2.15;;;1.70;;
29838;SDS011;18669;53.356;-1.464;2023-07-22T03:24:43;2.30;;;1.83;;
29838;SDS011;18669;53.356;-1.464;2023-07-22T03:27:29;2.97;;;1.60;;
29838;SDS011;18669;53.356;-1.464;2023-07-22T03:30:14;2.78;;;2.00;;
29838;SDS011;18669;53.356;-1.464;2023-07-22T03:33:02;3.47;;;1.83;;
29838;SDS011;18669;53.356;-1.464;2023-07-22T03:35:47;2.55;;;1.70;;
29838;SDS011;18669;53.356;-1.464;2023-07-22T03:38:32;3.30;;;2.10;;
29838;SDS011;18669;53.356;-1.464;2023-07-22T03:41:18;4.57;;;2.40;;
29838;SDS011;18669;53.356;-1.464;2023-07-22T03:44:03;4.68;;;1.85;;
29838;SDS011;18669;53.356;-1.464;2023-07-22T03:46:48;3.80;;;2.00;;
29838;SDS011;18669;53.356;-1.464;2023-07-22T03:49:32;2.40;;;1.60;;
29838;SDS011;18669;53.356;-1.464;2023-07-22T03:52:17;3.55;;;2.20;;
29838;SDS011;18669;53.356;-1.464;2023-07-22T03:55:02;3.55;;;2.15;;
29838;SDS011;18669;53.356;-1.464;2023-07-22T03:57:49;2.78;;;2.10;;
29838;SDS011;18669;53.356;-1.464;2023-07-22T04:00:34;2.60;;;1.88;;
29838;SDS011;18669;53.356;-1.464;2023-07-22T04:03:18;4.05;;;1.83;;
29838;SDS011;18669;53.356;-1.464;2023-07-22T04:06:03;3.95;;;2.47;;
29838;SDS011;18669;53.356;-1.464;2023-07-22T04:08:48;3.72;;;2.35;;
29838;SDS011;18669;53.356;-1.464;2023-07-22T04:11:33;4.60;;;2.30;;
29838;SDS011;18669;53.356;-1.464;2023-07-22T04:14:18;5.70;;;2.53;;
29838;SDS011;18669;53.356;-1.464;2023-07-22T04:17:03;2.80;;;2.30;;
29838;SDS011;18669;53.356;-1.464;2023-07-22T04:19:50;5.03;;;2.55;;
29838;SDS011;18669;53.356;-1.464;2023-07-22T04:22:36;4.50;;;2.38;;
29838;SDS011;18669;53.356;-1.464;2023-07-22T04:25:21;4.05;;;2.40;;
29838;SDS011;18669;53.356;-1.464;2023-07-22T04:28:06;4.80;;;2.88;;
29838;SDS011;18669;53.356;-1.464;2023-07-22T04:30:55;3.58;;;2.50;;
29838;SDS011;18669;53.356;-1.464;2023-07-22T04:33:42;4.82;;;2.80;;
29838;SDS011;18669;53.356;-1.464;2023-07-22T04:36:27;4.50;;;2.78;;
29838;SDS011;18669;53.356;-1.464;2023-07-22T04:39:12;7.90;;;2.85;;
29838;SDS011;18669;53.356;-1.464;2023-07-22T04:41:57;4.15;;;2.65;;
29838;SDS011;18669;53.356;-1.464;2023-07-22T04:44:42;3.63;;;2.70;;
29838;SDS011;18669;53.356;-1.464;2023-07-22T04:47:28;6.15;;;2.97;;
29838;SDS011;18669;53.356;-1.464;2023-07-22T04:50:13;8.57;;;3.08;;
29838;SDS011;18669;53.356;-1.464;2023-07-22T04:52:58;6.47;;;2.80;;
29838;SDS011;18669;53.356;-1.464;2023-07-22T04:55:43;6.65;;;2.70;;
29838;SDS011;18669;53.356;-1.464;2023-07-22T04:58:27;6.00;;;2.70;;
29838;SDS011;18669;53.356;-1.464;2023-07-22T05:01:12;3.83;;;2.75;;
29838;SDS011;18669;53.356;-1.464;2023-07-22T05:03:57;5.85;;;2.88;;
29838;SDS011;18669;53.356;-1.464;2023-07-22T05:06:42;6.78;;;2.92;;
29838;SDS011;18669;53.356;-1.464;2023-07-22T05:09:27;5.57;;;3.03;;
29838;SDS011;18669;53.356;-1.464;2023-07-22T05:12:12;4.13;;;2.83;;
29838;SDS011;18669;53.356;-1.464;2023-07-22T05:14:56;5.05;;;3.10;;
29838;SDS011;18669;53.356;-1.464;2023-07-22T05:17:41;4.55;;;3.03;;
29838;SDS011;18669;53.356;-1.464;2023-07-22T05:20:26;5.25;;;3.80;;
29838;SDS011;18669;53.356;-1.464;2023-07-22T05:23:11;6.70;;;3.17;;
29838;SDS011;18669;53.356;-1.464;2023-07-22T05:25:56;7.30;;;3.63;;
29838;SDS011;18669;53.356;-1.464;2023-07-22T05:28:41;6.25;;;3.08;;
29838;SDS011;18669;53.356;-1.464;2023-07-22T05:31:26;5.20;;;3.40;;
29838;SDS011;18669;53.356;-1.464;2023-07-22T05:34:11;6.95;;;3.22;;
29838;SDS011;18669;53.356;-1.464;2023-07-22T05:36:56;6.70;;;3.20;;
29838;SDS011;18669;53.356;-1.464;2023-07-22T05:39:41;5.65;;;3.20;;
29838;SDS011;18669;53.356;-1.464;2023-07-22T05:42:26;6.07;;;3.20;;
29838;SDS011;18669;53.356;-1.464;2023-07-22T05:45:12;5.38;;;3.17;;
29838;SDS011;18669;53.356;-1.464;2023-07-22T05:47:59;7.80;;;3.58;;
29838;SDS011;18669;53.356;-1.464;2023-07-22T05:50:44;5.45;;;3.10;;
29838;SDS011;18669;53.356;-1.464;2023-07-22T05:53:29;5.68;;;3.13;;
29838;SDS011;18669;53.356;-1.464;2023-07-22T05:56:14;5.20;;;3.00;;
29838;SDS011;18669;53.356;-1.464;2023-07-22T05:58:58;6.50;;;3.05;;
29838;SDS011;18669;53.356;-1.464;2023-07-22T06:01:43;7.03;;;3.30;;
29838;SDS011;18669;53.356;-1.464;2023-07-22T06:04:28;5.38;;;2.90;;
29838;SDS011;18669;53.356;-1.464;2023-07-22T06:07:13;5.82;;;3.28;;
29838;SDS011;18669;53.356;-1.464;2023-07-22T06:09:58;5.47;;;2.80;;
29838;SDS011;18669;53.356;-1.464;2023-07-22T06:12:43;3.65;;;2.72;;
29838;SDS011;18669;53.356;-1.464;2023-07-22T06:15:28;5.00;;;2.88;;
29838;SDS011;18669;53.356;-1.464;2023-07-22T06:18:12;5.68;;;2.97;;
29838;SDS011;18669;53.356;-1.464;2023-07-22T06:20:57;4.78;;;2.95;;
29838;SDS011;18669;53.356;-1.464;2023-07-22T06:23:42;5.03;;;3.13;;
29838;SDS011;18669;53.356;-1.464;2023-07-22T06:26:27;5.07;;;3.42;;
29838;SDS011;18669;53.356;-1.464;2023-07-22T06:29:12;5.47;;;3.92;;
29838;SDS011;18669;53.356;-1.464;2023-07-22T06:31:57;6.88;;;4.53;;
29838;SDS011;18669;53.356;-1.464;2023-07-22T06:34:42;11.18;;;4.70;;
29838;SDS011;18669;53.356;-1.464;2023-07-22T06:37:27;8.38;;;4.15;;
29838;SDS011;18669;53.356;-1.464;2023-07-22T06:40:11;7.05;;;4.95;;
29838;SDS011;18669;53.356;-1.464;2023-07-22T06:42:56;9.60;;;5.03;;
29838;SDS011;18669;53.356;-1.464;2023-07-22T06:45:41;8.25;;;4.88;;
29838;SDS011;18669;53.356;-1.464;2023-07-22T06:48:26;9.90;;;4.80;;
29838;SDS011;18669;53.356;-1.464;2023-07-22T06:51:11;9.32;;;5.00;;
29838;SDS011;18669;53.356;-1.464;2023-07-22T06:53:56;7.80;;;4.72;;
29838;SDS011;18669;53.356;-1.464;2023-07-22T06:56:41;8.70;;;5.25;;
29838;SDS011;18669;53.356;-1.464;2023-07-22T06:59:26;10.45;;;6.32;;
29838;SDS011;18669;53.356;-1.464;2023-07-22T07:02:11;8.45;;;4.72;;
29838;SDS011;18669;53.356;-1.464;2023-07-22T07:04:56;13.63;;;5.88;;
29838;SDS011;18669;53.356;-1.464;2023-07-22T07:07:41;7.70;;;5.22;;
29838;SDS011;18669;53.356;-1.464;2023-07-22T07:10:25;10.57;;;6.05;;
29838;SDS011;18669;53.356;-1.464;2023-07-22T07:13:10;10.18;;;5.70;;
29838;SDS011;18669;53.356;-1.464;2023-07-22T07:15:55;10.05;;;5.68;;
29838;SDS011;18669;53.356;-1.464;2023-07-22T07:18:40;10.52;;;5.35;;
29838;SDS011;18669;53.356;-1.464;2023-07-22T07:21:25;13.05;;;5.97;;
29838;SDS011;18669;53.356;-1.464;2023-07-22T07:24:10;12.02;;;6.00;;
29838;SDS011;18669;53.356;-1.464;2023-07-22T07:26:55;10.23;;;4.95;;
29838;SDS011;18669;53.356;-1.464;2023-07-22T07:29:40;10.15;;;4.75;;
29838;SDS011;18669;53.356;-1.464;2023-07-22T07:32:25;7.15;;;4.70;;
29838;SDS011;18669;53.356;-1.464;2023-07-22T07:35:10;8.57;;;4.88;;
29838;SDS011;18669;53.356;-1.464;2023-07-22T07:37:56;6.43;;;4.20;;
29838;SDS011;18669;53.356;-1.464;2023-07-22T07:40:41;8.35;;;4.30;;
29838;SDS011;18669;53.356;-1.464;2023-07-22T07:43:26;5.45;;;3.80;;
29838;SDS011;18669;53.356;-1.464;2023-07-22T07:46:21;6.43;;;4.00;;
29838;SDS011;18669;53.356;-1.464;2023-07-22T07:49:07;8.27;;;3.87;;
29838;SDS011;18669;53.356;-1.464;2023-07-22T07:51:54;6.30;;;3.42;;
29838;SDS011;18669;53.356;-1.464;2023-07-22T07:54:42;4.03;;;2.88;;
29838;SDS011;18669;53.356;-1.464;2023-07-22T07:57:27;4.30;;;2.92;;
29838;SDS011;18669;53.356;-1.464;2023-07-22T08:00:12;4.55;;;3.22;;
29838;SDS011;18669;53.356;-1.464;2023-07-22T08:02:57;3.83;;;2.60;;
29838;SDS011;18669;53.356;-1.464;2023-07-22T08:05:42;3.90;;;2.92;;
29838;SDS011;18669;53.356;-1.464;2023-07-22T08:08:27;4.82;;;2.88;;
29838;SDS011;18669;53.356;-1.464;2023-07-22T08:11:13;5.32;;;3.03;;
29838;SDS011;18669;53.356;-1.464;2023-07-22T08:13:59;6.15;;;3.22;;
29838;SDS011;18669;53.356;-1.464;2023-07-22T08:16:44;6.20;;;3.50;;
29838;SDS011;18669;53.356;-1.464;2023-07-22T08:19:28;4.43;;;3.00;;
29838;SDS011;18669;53.356;-1.464;2023-07-22T08:22:13;6.28;;;3.00;;
29838;SDS011;18669;53.356;-1.464;2023-07-22T08:24:58;9.18;;;3.55;;
29838;SDS011;18669;53.356;-1.464;2023-07-22T08:27:43;4.95;;;2.97;;
29838;SDS011;18669;53.356;-1.464;2023-07-22T08:30:29;5.63;;;3.37;;
29838;SDS011;18669;53.356;-1.464;2023-07-22T08:33:14;5.28;;;3.05;;
29838;SDS011;18669;53.356;-1.464;2023-07-22T08:36:00;7.88;;;4.47;;
29838;SDS011;18669;53.356;-1.464;2023-07-22T08:38:46;4.93;;;3.05;;
29838;SDS011;18669;53.356;-1.464;2023-07-22T08:41:32;6.00;;;3.28;;
29838;SDS011;18669;53.356;-1.464;2023-07-22T08:44:19;7.32;;;3.15;;
29838;SDS011;18669;53.356;-1.464;2023-07-22T08:47:05;6.20;;;3.08;;
29838;SDS011;18669;53.356;-1.464;2023-07-22T08:49:58;6.07;;;3.22;;
29838;SDS011;18669;53.356;-1.464;2023-07-22T08:52:46;5.65;;;3.58;;
29838;SDS011;18669;53.356;-1.464;2023-07-22T08:55:32;8.65;;;3.40;;
29838;SDS011;18669;53.356;-1.464;2023-07-22T08:58:17;5.65;;;3.72;;
29838;SDS011;18669;53.356;-1.464;2023-07-22T09:01:02;5.70;;;3.53;;
29838;SDS011;18669;53.356;-1.464;2023-07-22T09:03:48;5.80;;;3.20;;
29838;SDS011;18669;53.356;-1.464;2023-07-22T09:06:36;5.30;;;3.58;;
29838;SDS011;18669;53.356;-1.464;2023-07-22T09:09:21;8.25;;;3.58;;
29838;SDS011;18669;53.356;-1.464;2023-07-22T09:12:07;6.00;;;3.38;;
29838;SDS011;18669;53.356;-1.464;2023-07-22T09:14:52;4.15;;;2.95;;
29838;SDS011;18669;53.356;-1.464;2023-07-22T09:17:38;5.45;;;3.30;;
29838;SDS011;18669;53.356;-1.464;2023-07-22T09:20:25;4.75;;;3.10;;
29838;SDS011;18669;53.356;-1.464;2023-07-22T09:23:13;6.70;;;3.47;;
29838;SDS011;18669;53.356;-1.464;2023-07-22T09:26:08;4.68;;;3.08;;
29838;SDS011;18669;53.356;-1.464;2023-07-22T09:28:55;3.90;;;2.97;;
29838;SDS011;18669;53.356;-1.464;2023-07-22T09:34:33;4.18;;;3.05;;
29838;SDS011;18669;53.356;-1.464;2023-07-22T09:37:18;4.65;;;3.05;;
29838;SDS011;18669;53.356;-1.464;2023-07-22T09:43:17;5.90;;;3.10;;
29838;SDS011;18669;53.356;-1.464;2023-07-22T09:46:09;5.97;;;3.45;;
29838;SDS011;18669;53.356;-1.464;2023-07-22T09:48:54;10.05;;;3.63;;
29838;SDS011;18669;53.356;-1.464;2023-07-22T09:51:39;6.22;;;3.15;;
29838;SDS011;18669;53.356;-1.464;2023-07-22T09:54:24;4.65;;;3.15;;
29838;SDS011;18669;53.356;-1.464;2023-07-22T09:57:13;5.63;;;3.50;;
29838;SDS011;18669;53.356;-1.464;2023-07-22T09:59:58;7.78;;;3.20;;
29838;SDS011;18669;53.356;-1.464;2023-07-22T10:02:43;5.97;;;3.20;;
29838;SDS011;18669;53.356;-1.464;2023-07-22T10:05:29;6.20;;;3.20;;
29838;SDS011;18669;53.356;-1.464;2023-07-22T10:08:14;5.32;;;3.40;;
29838;SDS011;18669;53.356;-1.464;2023-07-22T10:11:03;4.03;;;3.03;;
29838;SDS011;18669;53.356;-1.464;2023-07-22T10:13:51;5.63;;;3.47;;
29838;SDS011;18669;53.356;-1.464;2023-07-22T10:19:22;5.15;;;3.17;;
29838;SDS011;18669;53.356;-1.464;2023-07-22T10:22:08;4.28;;;2.78;;
29838;SDS011;18669;53.356;-1.464;2023-07-22T10:24:54;4.97;;;2.95;;
29838;SDS011;18669;53.356;-1.464;2023-07-22T10:27:40;5.22;;;2.70;;
29838;SDS011;18669;53.356;-1.464;2023-07-22T10:30:28;3.72;;;2.70;;
29838;SDS011;18669;53.356;-1.464;2023-07-22T10:33:13;3.35;;;2.63;;
29838;SDS011;18669;53.356;-1.464;2023-07-22T10:36:05;6.82;;;2.70;;
29838;SDS011;18669;53.356;-1.464;2023-07-22T10:38:57;6.68;;;2.88;;
29838;SDS011;18669;53.356;-1.464;2023-07-22T10:44:38;6.53;;;2.30;;
29838;SDS011;18669;53.356;-1.464;2023-07-22T10:47:33;3.92;;;2.05;;
29838;SDS011;18669;53.356;-1.464;2023-07-22T10:50:20;3.10;;;2.00;;
29838;SDS011;18669;53.356;-1.464;2023-07-22T10:53:05;4.55;;;2.58;;
29838;SDS011;18669;53.356;-1.464;2023-07-22T11:01:35;3.05;;;2.20;;
29838;SDS011;18669;53.356;-1.464;2023-07-22T11:04:22;2.92;;;2.08;;
29838;SDS011;18669;53.356;-1.464;2023-07-22T11:10:31;3.08;;;2.10;;
29838;SDS011;18669;53.356;-1.464;2023-07-22T11:13:26;3.47;;;2.47;;
29838;SDS011;18669;53.356;-1.464;2023-07-22T11:16:12;4.10;;;2.25;;
29838;SDS011;18669;53.356;-1.464;2023-07-22T11:18:57;4.80;;;2.70;;
29838;SDS011;18669;53.356;-1.464;2023-07-22T11:21:42;4.45;;;2.30;;
29838;SDS011;18669;53.356;-1.464;2023-07-22T11:24:28;6.80;;;2.60;;
29838;SDS011;18669;53.356;-1.464;2023-07-22T11:27:13;4.28;;;2.80;;
29838;SDS011;18669;53.356;-1.464;2023-07-22T11:29:58;4.25;;;2.53;;
29838;SDS011;18669;53.356;-1.464;2023-07-22T11:32:43;4.88;;;2.80;;
29838;SDS011;18669;53.356;-1.464;2023-07-22T11:35:29;4.20;;;2.40;;
29838;SDS011;18669;53.356;-1.464;2023-07-22T11:38:13;3.00;;;2.25;;
29838;SDS011;18669;53.356;-1.464;2023-07-22T11:40:58;4.55;;;2.65;;
29838;SDS011;18669;53.356;-1.464;2023-07-22T11:43:43;2.63;;;2.05;;
29838;SDS011;18669;53.356;-1.464;2023-07-22T11:46:28;2.88;;;2.20;;
29838;SDS011;18669;53.356;-1.464;2023-07-22T11:49:21;5.20;;;2.30;;
29838;SDS011;18669;53.356;-1.464;2023-07-22T11:52:07;2.53;;;2.10;;
29838;SDS011;18669;53.356;-1.464;2023-07-22T11:54:52;3.65;;;2.45;;
29838;SDS011;18669;53.356;-1.464;2023-07-22T11:57:38;3.70;;;2.53;;
29838;SDS011;18669;53.356;-1.464;2023-07-22T12:00:24;4.78;;;2.60;;
29838;SDS011;18669;53.356;-1.464;2023-07-22T12:03:09;2.78;;;2.13;;
29838;SDS011;18669;53.356;-1.464;2023-07-22T12:05:54;4.03;;;2.40;;
29838;SDS011;18669;53.356;-1.464;2023-07-22T12:08:43;3.53;;;2.35;;
29838;SDS011;18669;53.356;-1.464;2023-07-22T12:11:32;3.28;;;2.25;;
29838;SDS011;18669;53.356;-1.464;2023-07-22T12:14:17;4.17;;;2.30;;
29838;SDS011;18669;53.356;-1.464;2023-07-22T12:17:02;5.10;;;2.53;;
29838;SDS011;18669;53.356;-1.464;2023-07-22T12:19:52;3.38;;;2.35;;
29838;SDS011;18669;53.356;-1.464;2023-07-22T12:22:37;3.42;;;2.42;;
29838;SDS011;18669;53.356;-1.464;2023-07-22T12:25:22;2.80;;;2.22;;
29838;SDS011;18669;53.356;-1.464;2023-07-22T12:28:07;6.60;;;2.20;;
29838;SDS011;18669;53.356;-1.464;2023-07-22T12:30:53;2.67;;;2.25;;
29838;SDS011;18669;53.356;-1.464;2023-07-22T12:33:39;3.75;;;2.50;;
29838;SDS011;18669;53.356;-1.464;2023-07-22T12:36:24;6.63;;;3.28;;
29838;SDS011;18669;53.356;-1.464;2023-07-22T12:39:12;7.80;;;3.45;;
29838;SDS011;18669;53.356;-1.464;2023-07-22T12:41:57;9.13;;;4.20;;
29838;SDS011;18669;53.356;-1.464;2023-07-22T12:44:42;7.25;;;2.53;;
29838;SDS011;18669;53.356;-1.464;2023-07-22T12:47:27;1.83;;;1.70;;
29838;SDS011;18669;53.356;-1.464;2023-07-22T12:50:12;2.28;;;1.90;;
29838;SDS011;18669;53.356;-1.464;2023-07-22T12:52:57;2.22;;;1.85;;
29838;SDS011;18669;53.356;-1.464;2023-07-22T12:55:46;6.97;;;2.13;;
29838;SDS011;18669;53.356;-1.464;2023-07-22T12:58:31;2.38;;;1.70;;
29838;SDS011;18669;53.356;-1.464;2023-07-22T13:01:16;2.03;;;1.73;;
29838;SDS011;18669;53.356;-1.464;2023-07-22T13:04:01;2.22;;;1.88;;
29838;SDS011;18669;53.356;-1.464;2023-07-22T13:06:47;3.70;;;2.08;;
29838;SDS011;18669;53.356;-1.464;2023-07-22T13:09:32;2.80;;;2.00;;
29838;SDS011;18669;53.356;-1.464;2023-07-22T13:12:17;3.03;;;1.80;;
29838;SDS011;18669;53.356;-1.464;2023-07-22T13:15:02;4.15;;;2.22;;
29838;SDS011;18669;53.356;-1.464;2023-07-22T13:17:48;2.95;;;2.05;;
29838;SDS011;18669;53.356;-1.464;2023-07-22T13:20:32;7.13;;;2.20;;
29838;SDS011;18669;53.356;-1.464;2023-07-22T13:23:17;3.58;;;2.00;;
29838;SDS011;18669;53.356;-1.464;2023-07-22T13:26:02;2.33;;;2.00;;
29838;SDS011;18669;53.356;-1.464;2023-07-22T13:28:47;4.93;;;2.20;;
29838;SDS011;18669;53.356;-1.464;2023-07-22T13:31:32;3.10;;;2.20;;
29838;SDS011;18669;53.356;-1.464;2023-07-22T13:34:17;4.40;;;2.28;;
29838;SDS011;18669;53.356;-1.464;2023-07-22T13:37:02;4.30;;;2.00;;
29838;SDS011;18669;53.356;-1.464;2023-07-22T13:39:47;2.67;;;1.80;;
29838;SDS011;18669;53.356;-1.464;2023-07-22T13:42:32;1.90;;;1.55;;
29838;SDS011;18669;53.356;-1.464;2023-07-22T13:45:17;2.58;;;1.70;;
29838;SDS011;18669;53.356;-1.464;2023-07-22T13:48:02;2.20;;;1.40;;
29838;SDS011;18669;53.356;-1.464;2023-07-22T13:50:46;2.08;;;1.50;;
29838;SDS011;18669;53.356;-1.464;2023-07-22T13:53:31;2.13;;;1.10;;
29838;SDS011;18669;53.356;-1.464;2023-07-22T13:56:16;2.05;;;1.23;;
29838;SDS011;18669;53.356;-1.464;2023-07-22T13:59:01;3.30;;;1.35;;
29838;SDS011;18669;53.356;-1.464;2023-07-22T14:01:48;5.20;;;1.35;;
29838;SDS011;18669;53.356;-1.464;2023-07-22T14:04:33;4.47;;;1.33;;
29838;SDS011;18669;53.356;-1.464;2023-07-22T14:07:18;1.73;;;1.27;;
29838;SDS011;18669;53.356;-1.464;2023-07-22T14:10:04;1.27;;;1.15;;
29838;SDS011;18669;53.356;-1.464;2023-07-22T14:12:49;1.52;;;1.10;;
29838;SDS011;18669;53.356;-1.464;2023-07-22T14:15:34;1.45;;;1.20;;
29838;SDS011;18669;53.356;-1.464;2023-07-22T14:18:20;3.42;;;1.10;;
29838;SDS011;18669;53.356;-1.464;2023-07-22T14:21:05;1.30;;;1.20;;
29838;SDS011;18669;53.356;-1.464;2023-07-22T14:23:49;1.10;;;1.00;;
29838;SDS011;18669;53.356;-1.464;2023-07-22T14:26:34;1.20;;;1.00;;
29838;SDS011;18669;53.356;-1.464;2023-07-22T14:29:22;0.85;;;0.85;;
29838;SDS011;18669;53.356;-1.464;2023-07-22T14:32:09;2.63;;;0.90;;
29838;SDS011;18669;53.356;-1.464;2023-07-22T14:34:54;1.38;;;1.00;;
29838;SDS011;18669;53.356;-1.464;2023-07-22T14:37:39;1.20;;;1.10;;
29838;SDS011;18669;53.356;-1.464;2023-07-22T14:40:25;2.05;;;0.77;;
29838;SDS011;18669;53.356;-1.464;2023-07-22T14:43:09;2.15;;;0.90;;
29838;SDS011;18669;53.356;-1.464;2023-07-22T14:45:54;0.70;;;0.70;;
29838;SDS011;18669;53.356;-1.464;2023-07-22T14:48:39;0.57;;;0.57;;
29838;SDS011;18669;53.356;-1.464;2023-07-22T14:51:24;0.77;;;0.63;;
29838;SDS011;18669;53.356;-1.464;2023-07-22T14:54:09;0.75;;;0.75;;
29838;SDS011;18669;53.356;-1.464;2023-07-22T14:56:54;0.63;;;0.63;;
29838;SDS011;18669;53.356;-1.464;2023-07-22T14:59:39;1.05;;;0.70;;
29838;SDS011;18669;53.356;-1.464;2023-07-22T15:02:24;0.50;;;0.50;;
29838;SDS011;18669;53.356;-1.464;2023-07-22T15:05:09;0.55;;;0.50;;
29838;SDS011;18669;53.356;-1.464;2023-07-22T15:07:53;0.40;;;0.40;;
29838;SDS011;18669;53.356;-1.464;2023-07-22T15:10:38;0.68;;;0.60;;
29838;SDS011;18669;53.356;-1.464;2023-07-22T15:13:23;0.40;;;0.40;;
29838;SDS011;18669;53.356;-1.464;2023-07-22T15:16:08;1.42;;;0.40;;
29838;SDS011;18669;53.356;-1.464;2023-07-22T15:18:53;1.80;;;0.40;;
29838;SDS011;18669;53.356;-1.464;2023-07-22T15:21:37;1.05;;;0.57;;
29838;SDS011;18669;53.356;-1.464;2023-07-22T15:24:22;0.30;;;0.30;;
29838;SDS011;18669;53.356;-1.464;2023-07-22T15:27:07;0.93;;;0.20;;
29838;SDS011;18669;53.356;-1.464;2023-07-22T15:29:52;1.05;;;0.40;;
29838;SDS011;18669;53.356;-1.464;2023-07-22T15:32:37;0.57;;;0.45;;
29838;SDS011;18669;53.356;-1.464;2023-07-22T15:35:22;1.33;;;0.40;;
29838;SDS011;18669;53.356;-1.464;2023-07-22T15:38:07;0.30;;;0.30;;
29838;SDS011;18669;53.356;-1.464;2023-07-22T15:40:52;0.75;;;0.60;;
29838;SDS011;18669;53.356;-1.464;2023-07-22T15:43:37;1.00;;;0.80;;
29838;SDS011;18669;53.356;-1.464;2023-07-22T15:46:22;0.70;;;0.40;;
29838;SDS011;18669;53.356;-1.464;2023-07-22T15:49:06;0.50;;;0.50;;
29838;SDS011;18669;53.356;-1.464;2023-07-22T15:51:51;1.23;;;0.38;;
29838;SDS011;18669;53.356;-1.464;2023-07-22T15:54:36;0.77;;;0.50;;
29838;SDS011;18669;53.356;-1.464;2023-07-22T15:57:21;0.40;;;0.40;;
29838;SDS011;18669;53.356;-1.464;2023-07-22T16:00:06;0.38;;;0.38;;
29838;SDS011;18669;53.356;-1.464;2023-07-22T16:02:54;0.75;;;0.50;;
29838;SDS011;18669;53.356;-1.464;2023-07-22T16:05:39;0.60;;;0.60;;
29838;SDS011;18669;53.356;-1.464;2023-07-22T16:08:24;0.50;;;0.50;;
29838;SDS011;18669;53.356;-1.464;2023-07-22T16:11:09;0.52;;;0.45;;
29838;SDS011;18669;53.356;-1.464;2023-07-22T16:13:54;0.57;;;0.50;;
29838;SDS011;18669;53.356;-1.464;2023-07-22T16:16:39;1.48;;;0.50;;
29838;SDS011;18669;53.356;-1.464;2023-07-22T16:19:23;0.68;;;0.60;;
29838;SDS011;18669;53.356;-1.464;2023-07-22T16:22:08;1.35;;;0.80;;
29838;SDS011;18669;53.356;-1.464;2023-07-22T16:24:54;1.05;;;0.80;;
29838;SDS011;18669;53.356;-1.464;2023-07-22T16:27:39;0.68;;;0.68;;
29838;SDS011;18669;53.356;-1.464;2023-07-22T16:30:24;0.68;;;0.60;;
29838;SDS011;18669;53.356;-1.464;2023-07-22T16:33:09;1.77;;;0.60;;
29838;SDS011;18669;53.356;-1.464;2023-07-22T16:35:56;0.60;;;0.60;;
29838;SDS011;18669;53.356;-1.464;2023-07-22T16:38:41;0.95;;;0.57;;
29838;SDS011;18669;53.356;-1.464;2023-07-22T16:41:26;0.65;;;0.65;;
29838;SDS011;18669;53.356;-1.464;2023-07-22T16:44:11;1.83;;;0.60;;